Time;durP1;ratioP1;P1;durP2;ratioP2;P2;SDS_P1;SDS_P2;PMS_P1;PMS_P2;Temp;Humidity;BMP_temperature;BMP_pressure;BME280_temperature;BME280_humidity;BME280_pressure;Samples;Min_cycle;Max_cycle;Signal;HPM_P1;HPM_P2
2023/12/25 00:01:00;;;;;;;;;;;16.00;77.60;;;;;;7326979;19;9289;-60
2023/12/25 00:03:30;;;;;;;;;;;16.10;77.60;;;;;;7326216;19;10129;-60
2023/12/25 00:05:59;;;;;;;;;;;16.00;77.70;;;;;;7327421;19;9169;-60
2023/12/25 00:08:29;;;;;;;;;;;16.00;77.70;;;;;;7327291;19;9200;-60
2023/12/25 00:11:00;;;;;;;;;;;16.00;77.60;;;;;;7327241;19;10609;-60
2023/12/25 00:13:29;;;;;;;;;;;16.00;77.60;;;;;;7327208;19;9476;-60
2023/12/25 00:15:58;;;;;;;;;;;16.00;77.70;;;;;;7326627;19;9458;-60
2023/12/25 00:18:27;;;;;;;;;;;16.00;77.60;;;;;;7327203;19;9182;-60
2023/12/25 00:21:16;;;;;;;;;;;16.10;77.60;;;;;;7324736;19;11020;-60
2023/12/25 00:23:45;;;;;;;;;;;16.00;77.70;;;;;;7326664;19;9340;-60
2023/12/25 00:26:17;;;;;;;;;;;16.00;77.50;;;;;;7326523;19;9234;-60
2023/12/25 00:28:46;;;;;;;;;;;16.10;77.90;;;;;;7326733;19;9254;-60
2023/12/25 00:31:16;;;;;;;;;;;16.00;77.70;;;;;;7325155;19;10340;-60
2023/12/25 00:33:45;;;;;;;;;;;16.00;77.70;;;;;;7326028;19;9494;-60
2023/12/25 00:36:14;;;;;;;;;;;16.00;77.70;;;;;;7326292;19;9258;-60
2023/12/25 00:38:43;;;;;;;;;;;16.00;77.80;;;;;;7326243;19;9693;-60
2023/12/25 00:41:12;;;;;;;;;;;16.00;77.90;;;;;;7326355;19;9468;-60
2023/12/25 00:43:44;;;;;;;;;;;16.00;77.90;;;;;;7325503;19;9229;-60
2023/12/25 00:46:13;;;;;;;;;;;16.00;77.90;;;;;;7326524;19;9511;-60
2023/12/25 00:48:42;;;;;;;;;;;16.00;77.70;;;;;;7325711;19;9226;-60
2023/12/25 00:51:11;;;;;;;;;;;16.00;77.70;;;;;;7325969;19;9287;-60
2023/12/25 00:53:40;;;;;;;;;;;16.00;78.10;;;;;;7324927;19;10382;-60
2023/12/25 00:56:10;;;;;;;;;;;16.00;78.10;;;;;;7326362;19;9818;-60
2023/12/25 00:59:02;;;;;;;;;;;16.00;77.90;;;;;;7324938;19;10161;-60
2023/12/25 01:01:31;;;;;;;;;;;16.00;77.70;;;;;;7325631;19;9287;-60
2023/12/25 01:03:59;;;;;;;;;;;16.00;77.70;;;;;;7325661;19;9670;-60
2023/12/25 01:06:29;;;;;;;;;;;16.00;77.90;;;;;;7324855;19;10130;-60
2023/12/25 01:08:58;;;;;;;;;;;16.00;77.50;;;;;;7325754;19;9461;-60
2023/12/25 01:11:27;;;;;;;;;;;16.00;77.80;;;;;;7324983;19;9407;-60
2023/12/25 01:13:56;;;;;;;;;;;16.00;77.90;;;;;;7325485;19;9536;-60
2023/12/25 01:16:48;;;;;;;;;;;16.00;78.00;;;;;;7323609;19;9557;-60
2023/12/25 01:19:17;;;;;;;;;;;16.00;77.80;;;;;;7324562;19;9427;-60
2023/12/25 01:21:45;;;;;;;;;;;16.00;77.60;;;;;;7325379;19;10414;-60
2023/12/25 01:24:15;;;;;;;;;;;16.00;77.60;;;;;;7324320;19;9250;-60
2023/12/25 01:26:43;;;;;;;;;;;16.00;77.60;;;;;;7325536;19;9805;-61
2023/12/25 01:29:12;;;;;;;;;;;16.00;77.50;;;;;;7325131;19;9479;-60
2023/12/25 01:31:43;;;;;;;;;;;16.00;77.60;;;;;;7324777;19;9182;-60
2023/12/25 01:34:15;;;;;;;;;;;16.00;77.90;;;;;;7324319;19;11134;-60
2023/12/25 01:36:44;;;;;;;;;;;16.00;77.50;;;;;;7324912;19;9421;-60
2023/12/25 01:39:14;;;;;;;;;;;16.00;77.60;;;;;;7324569;19;11077;-60
2023/12/25 01:41:42;;;;;;;;;;;16.00;77.70;;;;;;7325448;19;9186;-60
2023/12/25 01:44:12;;;;;;;;;;;16.00;77.40;;;;;;7323129;19;9263;-60
2023/12/25 01:46:44;;;;;;;;;;;16.00;77.70;;;;;;7324395;19;10749;-60
2023/12/25 01:49:36;;;;;;;;;;;16.00;77.60;;;;;;7322793;19;9215;-60
2023/12/25 01:52:03;;;;;;;;;;;16.00;77.60;;;;;;7323875;19;9465;-60
2023/12/25 01:54:33;;;;;;;;;;;16.00;77.60;;;;;;7324347;19;9472;-60
2023/12/25 01:57:02;;;;;;;;;;;16.00;77.80;;;;;;7324415;19;9250;-60
2023/12/25 01:59:31;;;;;;;;;;;16.00;77.50;;;;;;7324465;19;9526;-60
2023/12/25 02:02:01;;;;;;;;;;;16.00;77.50;;;;;;7323360;19;9479;-60
2023/12/25 02:04:31;;;;;;;;;;;16.00;77.40;;;;;;7324124;19;9499;-60
2023/12/25 02:07:03;;;;;;;;;;;16.00;77.30;;;;;;7324512;19;9605;-60
2023/12/25 02:09:35;;;;;;;;;;;15.90;77.30;;;;;;7322941;19;9232;-60
2023/12/25 02:12:03;;;;;;;;;;;16.00;77.60;;;;;;7323776;19;9614;-60
2023/12/25 02:14:33;;;;;;;;;;;15.90;77.30;;;;;;7323648;19;9150;-60
2023/12/25 02:17:03;;;;;;;;;;;15.90;77.60;;;;;;7323422;19;10723;-60
2023/12/25 02:19:39;;;;;;;;;;;16.00;77.40;;;;;;7322840;19;9328;-60
2023/12/25 02:22:31;;;;;;;;;;;15.90;77.60;;;;;;7322203;19;9616;-60
2023/12/25 02:25:08;;;;;;;;;;;15.90;77.40;;;;;;7323761;19;9271;-60
2023/12/25 02:27:40;;;;;;;;;;;16.00;77.20;;;;;;7323018;19;9190;-60
2023/12/25 02:30:10;;;;;;;;;;;15.90;77.10;;;;;;7323037;19;9405;-60
2023/12/25 02:32:40;;;;;;;;;;;15.90;77.50;;;;;;7322238;19;9263;-60
2023/12/25 02:35:08;;;;;;;;;;;15.90;77.20;;;;;;7323192;19;9377;-60
2023/12/25 02:37:37;;;;;;;;;;;15.90;77.30;;;;;;7323374;19;9201;-60
2023/12/25 02:40:07;;;;;;;;;;;15.90;77.30;;;;;;7323096;19;9454;-60
2023/12/25 02:42:38;;;;;;;;;;;15.90;77.10;;;;;;7323571;19;9573;-59
2023/12/25 02:45:08;;;;;;;;;;;15.90;77.20;;;;;;7322577;19;9317;-60
2023/12/25 02:47:57;;;;;;;;;;;15.90;77.30;;;;;;7321710;19;9956;-60
2023/12/25 02:50:26;;;;;;;;;;;15.90;77.30;;;;;;7322300;19;9469;-60
2023/12/25 02:52:55;;;;;;;;;;;15.90;77.20;;;;;;7322880;19;9377;-60
2023/12/25 02:55:45;;;;;;;;;;;15.90;77.10;;;;;;7324305;19;9501;-60
2023/12/25 02:58:16;;;;;;;;;;;15.90;77.20;;;;;;7329100;19;9232;-60
2023/12/25 03:00:45;;;;;;;;;;;15.90;76.80;;;;;;7329974;19;9502;-60
2023/12/25 03:03:14;;;;;;;;;;;15.90;77.10;;;;;;7328842;19;9175;-60
2023/12/25 03:05:43;;;;;;;;;;;15.90;77.00;;;;;;7329065;19;9185;-60
2023/12/25 03:08:12;;;;;;;;;;;15.90;77.10;;;;;;7324957;19;10179;-60
2023/12/25 03:10:41;;;;;;;;;;;15.90;76.80;;;;;;7328370;19;9417;-59
2023/12/25 03:13:10;;;;;;;;;;;15.90;76.90;;;;;;7328693;19;9233;-60
2023/12/25 03:15:41;;;;;;;;;;;15.90;77.30;;;;;;7329006;19;9426;-60
2023/12/25 03:18:10;;;;;;;;;;;15.90;76.80;;;;;;7328549;19;9478;-60
2023/12/25 03:20:39;;;;;;;;;;;15.90;76.80;;;;;;7328321;19;9277;-60
2023/12/25 03:23:08;;;;;;;;;;;15.90;77.00;;;;;;7328297;19;9225;-60
2023/12/25 03:25:37;;;;;;;;;;;15.90;77.00;;;;;;7327332;19;9434;-59
2023/12/25 03:28:06;;;;;;;;;;;15.90;77.00;;;;;;7328866;19;9344;-60
2023/12/25 03:30:35;;;;;;;;;;;15.90;77.50;;;;;;7327318;19;9366;-60
2023/12/25 03:33:07;;;;;;;;;;;15.90;76.90;;;;;;7328636;19;9506;-60
2023/12/25 03:35:37;;;;;;;;;;;15.90;76.90;;;;;;7327363;19;9616;-60
2023/12/25 03:38:06;;;;;;;;;;;15.90;77.00;;;;;;7328758;19;9457;-60
2023/12/25 03:40:35;;;;;;;;;;;15.90;76.60;;;;;;7327727;19;10611;-60
2023/12/25 03:43:04;;;;;;;;;;;15.90;76.80;;;;;;7326542;19;9548;-60
2023/12/25 03:45:33;;;;;;;;;;;15.90;76.80;;;;;;7328201;19;9398;-60
2023/12/25 03:48:03;;;;;;;;;;;15.90;76.90;;;;;;7328172;19;9621;-60
2023/12/25 03:50:34;;;;;;;;;;;15.90;76.90;;;;;;7328575;19;9540;-60
2023/12/25 03:53:03;;;;;;;;;;;15.90;76.70;;;;;;7328313;19;11435;-60
2023/12/25 03:55:32;;;;;;;;;;;15.90;76.80;;;;;;7326601;19;9553;-60
2023/12/25 03:58:01;;;;;;;;;;;15.90;76.70;;;;;;7327814;19;9145;-60
2023/12/25 04:00:30;;;;;;;;;;;15.90;76.90;;;;;;7326802;19;10661;-60
2023/12/25 04:02:59;;;;;;;;;;;15.90;76.80;;;;;;7327666;19;10591;-60
2023/12/25 04:05:28;;;;;;;;;;;15.80;76.80;;;;;;7327107;19;9654;-60
2023/12/25 04:08:00;;;;;;;;;;;15.90;76.80;;;;;;7327293;19;9474;-60
2023/12/25 04:10:29;;;;;;;;;;;15.90;76.70;;;;;;7326729;19;9509;-60
2023/12/25 04:12:57;;;;;;;;;;;15.80;77.10;;;;;;7327417;19;9460;-60
2023/12/25 04:15:46;;;;;;;;;;;15.90;76.60;;;;;;7324532;19;9186;-60
2023/12/25 04:18:15;;;;;;;;;;;15.80;76.70;;;;;;7327293;19;9586;-60
2023/12/25 04:20:44;;;;;;;;;;;15.80;76.60;;;;;;7327324;19;9473;-59
2023/12/25 04:23:16;;;;;;;;;;;15.80;76.60;;;;;;7326495;19;9654;-60
2023/12/25 04:25:45;;;;;;;;;;;15.80;76.60;;;;;;7327098;19;9605;-60
2023/12/25 04:28:14;;;;;;;;;;;15.80;76.60;;;;;;7325929;19;9578;-60
2023/12/25 04:31:03;;;;;;;;;;;15.80;76.60;;;;;;7325512;19;9232;-60
2023/12/25 04:33:31;;;;;;;;;;;15.90;76.40;;;;;;7325543;19;9414;-60
2023/12/25 04:36:01;;;;;;;;;;;15.80;76.40;;;;;;7327428;19;10764;-60
2023/12/25 04:38:33;;;;;;;;;;;15.80;76.50;;;;;;7326218;19;9250;-60
2023/12/25 04:41:02;;;;;;;;;;;15.80;76.60;;;;;;7326346;19;9520;-60
2023/12/25 04:43:31;;;;;;;;;;;15.80;76.40;;;;;;7326207;19;9427;-60
2023/12/25 04:46:02;;;;;;;;;;;15.80;76.50;;;;;;7325674;19;9580;-60
2023/12/25 04:48:31;;;;;;;;;;;15.80;76.50;;;;;;7326395;19;10209;-60
2023/12/25 04:51:02;;;;;;;;;;;15.80;76.50;;;;;;7325960;19;11287;-60
2023/12/25 04:53:36;;;;;;;;;;;15.80;76.50;;;;;;7325992;19;9463;-60
2023/12/25 04:56:05;;;;;;;;;;;15.80;76.30;;;;;;7325037;19;9229;-60
2023/12/25 04:58:34;;;;;;;;;;;15.80;76.50;;;;;;7325749;19;9581;-60
2023/12/25 05:01:03;;;;;;;;;;;15.80;76.40;;;;;;7325264;19;9428;-60
2023/12/25 05:03:32;;;;;;;;;;;15.80;76.30;;;;;;7326237;19;9240;-60
2023/12/25 05:06:01;;;;;;;;;;;15.80;76.30;;;;;;7325632;19;9453;-60
2023/12/25 05:08:33;;;;;;;;;;;15.80;76.30;;;;;;7325689;19;9174;-60
2023/12/25 05:11:02;;;;;;;;;;;15.80;76.20;;;;;;7326330;19;9468;-60
2023/12/25 05:13:31;;;;;;;;;;;15.80;76.30;;;;;;7324851;19;9562;-60
2023/12/25 05:15:59;;;;;;;;;;;15.80;76.20;;;;;;7326259;19;9373;-60
2023/12/25 05:18:28;;;;;;;;;;;15.80;76.40;;;;;;7323337;19;9246;-60
2023/12/25 05:20:57;;;;;;;;;;;15.80;76.40;;;;;;7326139;19;9390;-61
2023/12/25 05:23:26;;;;;;;;;;;15.80;76.30;;;;;;7324855;19;9597;-60
2023/12/25 05:25:58;;;;;;;;;;;15.80;76.30;;;;;;7325492;19;9653;-61
2023/12/25 05:28:26;;;;;;;;;;;15.80;76.40;;;;;;7324479;19;9637;-60
2023/12/25 05:30:55;;;;;;;;;;;15.80;76.30;;;;;;7325419;19;9230;-61
2023/12/25 05:33:24;;;;;;;;;;;15.80;76.40;;;;;;7324315;19;9511;-61
2023/12/25 05:35:53;;;;;;;;;;;15.80;76.40;;;;;;7325253;19;9497;-60
2023/12/25 05:38:43;;;;;;;;;;;15.80;76.30;;;;;;7323911;19;9199;-60
2023/12/25 05:41:14;;;;;;;;;;;15.80;76.40;;;;;;7323304;19;9457;-61
2023/12/25 05:43:43;;;;;;;;;;;15.80;76.40;;;;;;7323935;19;9567;-60
2023/12/25 05:46:12;;;;;;;;;;;15.80;76.40;;;;;;7323482;19;9466;-60
2023/12/25 05:48:41;;;;;;;;;;;15.80;76.30;;;;;;7325110;19;10793;-60
2023/12/25 05:51:10;;;;;;;;;;;15.80;76.20;;;;;;7324451;19;10587;-61
2023/12/25 05:53:39;;;;;;;;;;;15.80;76.30;;;;;;7324236;19;9278;-60
2023/12/25 05:56:08;;;;;;;;;;;15.80;76.30;;;;;;7323505;19;9288;-61
2023/12/25 05:58:40;;;;;;;;;;;15.70;76.20;;;;;;7324027;19;10897;-60
2023/12/25 06:01:10;;;;;;;;;;;15.70;76.20;;;;;;7324689;19;9275;-61
2023/12/25 06:03:39;;;;;;;;;;;15.80;76.30;;;;;;7324750;19;9444;-60
2023/12/25 06:06:08;;;;;;;;;;;15.70;76.20;;;;;;7324446;19;9179;-60
2023/12/25 06:08:37;;;;;;;;;;;15.70;76.30;;;;;;7323530;19;9631;-61
2023/12/25 06:11:26;;;;;;;;;;;15.70;76.30;;;;;;7322228;19;9561;-60
2023/12/25 06:13:57;;;;;;;;;;;15.70;76.30;;;;;;7324092;19;9486;-60
2023/12/25 06:16:27;;;;;;;;;;;15.70;76.30;;;;;;7323049;19;10430;-61
2023/12/25 06:18:55;;;;;;;;;;;15.70;76.20;;;;;;7323237;19;9528;-61
2023/12/25 06:21:25;;;;;;;;;;;15.70;76.30;;;;;;7323782;19;9228;-61
2023/12/25 06:23:53;;;;;;;;;;;15.70;76.10;;;;;;7323293;19;9464;-60
2023/12/25 06:26:22;;;;;;;;;;;15.70;76.20;;;;;;7322884;19;9405;-60
2023/12/25 06:28:51;;;;;;;;;;;15.70;76.20;;;;;;7324520;19;9524;-60
2023/12/25 06:31:24;;;;;;;;;;;15.70;76.20;;;;;;7327804;19;9245;-61
2023/12/25 06:33:53;;;;;;;;;;;15.70;76.10;;;;;;7330378;19;9458;-60
2023/12/25 06:36:22;;;;;;;;;;;15.80;76.00;;;;;;7329102;19;9441;-61
2023/12/25 06:38:52;;;;;;;;;;;15.70;75.80;;;;;;7329332;19;10663;-60
2023/12/25 06:41:21;;;;;;;;;;;15.70;76.10;;;;;;7328995;19;9353;-60
2023/12/25 06:43:49;;;;;;;;;;;15.70;76.00;;;;;;7329804;19;9473;-60
2023/12/25 06:46:18;;;;;;;;;;;15.80;76.00;;;;;;7329251;19;9705;-61
2023/12/25 06:48:50;;;;;;;;;;;15.70;75.90;;;;;;7329736;19;9654;-60
2023/12/25 06:51:20;;;;;;;;;;;15.70;75.70;;;;;;7329533;19;9245;-60
2023/12/25 06:53:50;;;;;;;;;;;15.70;75.90;;;;;;7328809;19;9473;-60
2023/12/25 06:56:18;;;;;;;;;;;15.70;75.90;;;;;;7329867;19;9521;-60
2023/12/25 06:58:47;;;;;;;;;;;15.70;75.90;;;;;;7329517;19;10701;-60
2023/12/25 07:01:16;;;;;;;;;;;15.70;75.90;;;;;;7330020;19;9205;-60
2023/12/25 07:03:45;;;;;;;;;;;15.70;75.80;;;;;;7328885;19;9261;-60
2023/12/25 07:06:17;;;;;;;;;;;15.70;75.60;;;;;;7329337;19;9354;-60
2023/12/25 07:08:46;;;;;;;;;;;15.70;75.90;;;;;;7328505;19;9481;-60
2023/12/25 07:11:15;;;;;;;;;;;15.80;75.90;;;;;;7329467;19;9372;-60
2023/12/25 07:13:44;;;;;;;;;;;15.70;75.90;;;;;;7328533;19;9444;-61
2023/12/25 07:16:22;;;;;;;;;;;15.70;76.00;;;;;;7328497;19;9278;-60
2023/12/25 07:18:52;;;;;;;;;;;15.70;75.70;;;;;;7328495;19;9523;-60
2023/12/25 07:21:24;;;;;;;;;;;15.70;75.70;;;;;;7328684;19;9461;-60
2023/12/25 07:23:53;;;;;;;;;;;15.70;75.80;;;;;;7328152;19;9321;-60
2023/12/25 07:26:23;;;;;;;;;;;15.70;75.80;;;;;;7328401;19;9522;-60
2023/12/25 07:28:52;;;;;;;;;;;15.70;75.70;;;;;;7328624;19;9164;-60
2023/12/25 07:31:23;;;;;;;;;;;15.70;75.70;;;;;;7328353;19;9551;-60
2023/12/25 07:33:53;;;;;;;;;;;15.70;75.60;;;;;;7328213;19;9235;-60
2023/12/25 07:36:25;;;;;;;;;;;15.70;75.60;;;;;;7326751;19;9447;-60
2023/12/25 07:38:54;;;;;;;;;;;15.70;75.50;;;;;;7327631;19;9234;-60
2023/12/25 07:41:25;;;;;;;;;;;15.70;75.40;;;;;;7325621;19;9331;-60
2023/12/25 07:43:58;;;;;;;;;;;15.70;75.50;;;;;;7327676;19;9303;-60
2023/12/25 07:46:27;;;;;;;;;;;15.70;75.50;;;;;;7327997;19;9290;-60
2023/12/25 07:48:56;;;;;;;;;;;15.70;75.40;;;;;;7327465;19;9492;-60
2023/12/25 07:51:27;;;;;;;;;;;15.70;75.50;;;;;;7327351;19;9470;-60
2023/12/25 07:53:57;;;;;;;;;;;15.70;75.60;;;;;;7327446;19;9485;-60
2023/12/25 07:56:25;;;;;;;;;;;15.70;75.60;;;;;;7327002;19;9268;-60
2023/12/25 07:58:54;;;;;;;;;;;15.70;75.40;;;;;;7327152;19;9644;-60
2023/12/25 08:01:23;;;;;;;;;;;15.70;75.40;;;;;;7327114;19;9474;-60
2023/12/25 08:03:53;;;;;;;;;;;15.70;75.50;;;;;;7326286;19;10622;-60
2023/12/25 08:06:22;;;;;;;;;;;15.70;75.50;;;;;;7326940;19;9441;-60
2023/12/25 08:08:54;;;;;;;;;;;15.60;75.50;;;;;;7326546;19;9182;-60
2023/12/25 08:11:23;;;;;;;;;;;15.70;75.40;;;;;;7326445;19;10733;-60
2023/12/25 08:13:52;;;;;;;;;;;15.70;75.60;;;;;;7326526;19;9336;-60
2023/12/25 08:16:21;;;;;;;;;;;15.70;75.60;;;;;;7326801;19;10576;-60
2023/12/25 08:18:50;;;;;;;;;;;15.70;75.70;;;;;;7326221;19;9514;-60
2023/12/25 08:21:20;;;;;;;;;;;15.70;75.80;;;;;;7326188;19;9263;-60
2023/12/25 08:23:49;;;;;;;;;;;15.70;75.50;;;;;;7326124;19;9503;-60
2023/12/25 08:26:20;;;;;;;;;;;15.70;75.70;;;;;;7326412;19;9231;-60
2023/12/25 08:28:52;;;;;;;;;;;15.60;75.50;;;;;;7326459;19;9223;-60
2023/12/25 08:31:21;;;;;;;;;;;15.70;75.60;;;;;;7325863;19;9695;-59
2023/12/25 08:33:50;;;;;;;;;;;15.70;75.60;;;;;;7326452;19;9350;-60
2023/12/25 08:36:22;;;;;;;;;;;15.70;75.50;;;;;;7325112;19;9384;-60
2023/12/25 08:38:50;;;;;;;;;;;15.70;75.70;;;;;;7325987;19;9590;-60
2023/12/25 08:41:23;;;;;;;;;;;15.60;75.60;;;;;;7324887;19;8999;-60
2023/12/25 08:43:52;;;;;;;;;;;15.60;75.60;;;;;;7325016;19;10744;-60
2023/12/25 08:46:22;;;;;;;;;;;15.60;75.60;;;;;;7325470;19;10684;-60
2023/12/25 08:49:10;;;;;;;;;;;15.60;76.20;;;;;;7323309;19;9607;-60
2023/12/25 08:51:40;;;;;;;;;;;15.60;75.60;;;;;;7326095;19;9634;-60
2023/12/25 08:54:09;;;;;;;;;;;15.70;75.70;;;;;;7321971;19;9509;-60
2023/12/25 08:56:41;;;;;;;;;;;15.60;75.60;;;;;;7325779;19;9473;-60
2023/12/25 08:59:10;;;;;;;;;;;15.60;75.50;;;;;;7325238;19;9140;-60
2023/12/25 09:01:39;;;;;;;;;;;15.60;75.40;;;;;;7325465;19;9139;-60
2023/12/25 09:04:09;;;;;;;;;;;15.60;75.40;;;;;;7324792;19;9387;-60
2023/12/25 09:06:38;;;;;;;;;;;15.70;75.40;;;;;;7325712;19;9423;-60
2023/12/25 09:09:07;;;;;;;;;;;15.60;75.40;;;;;;7325657;19;9414;-60
2023/12/25 09:11:35;;;;;;;;;;;15.70;75.40;;;;;;7325824;19;9505;-59
2023/12/25 09:14:07;;;;;;;;;;;15.60;75.40;;;;;;7324998;19;11505;-60
2023/12/25 09:16:37;;;;;;;;;;;15.70;75.30;;;;;;7325340;19;9435;-60
2023/12/25 09:19:06;;;;;;;;;;;15.70;75.40;;;;;;7324725;19;10735;-60
2023/12/25 09:21:39;;;;;;;;;;;15.70;75.50;;;;;;7324588;19;9572;-59
2023/12/25 09:24:09;;;;;;;;;;;15.70;75.60;;;;;;7324846;19;9258;-60
2023/12/25 09:26:38;;;;;;;;;;;15.60;75.60;;;;;;7324471;19;9295;-60
2023/12/25 09:29:11;;;;;;;;;;;15.60;75.70;;;;;;7324600;19;9236;-59
2023/12/25 09:31:40;;;;;;;;;;;15.70;75.70;;;;;;7324693;19;9330;-60
2023/12/25 09:34:09;;;;;;;;;;;15.60;75.60;;;;;;7324143;19;9370;-60
2023/12/25 09:36:38;;;;;;;;;;;15.60;75.60;;;;;;7324068;19;9015;-60
2023/12/25 09:39:06;;;;;;;;;;;15.60;75.60;;;;;;7324413;19;9474;-60
2023/12/25 09:41:37;;;;;;;;;;;15.60;75.50;;;;;;7323890;19;9246;-60
2023/12/25 09:44:09;;;;;;;;;;;15.60;75.60;;;;;;7324434;19;9461;-60
2023/12/25 09:46:38;;;;;;;;;;;15.60;75.60;;;;;;7324840;19;9610;-60
2023/12/25 09:49:08;;;;;;;;;;;15.70;75.60;;;;;;7322851;19;9469;-59
2023/12/25 09:51:37;;;;;;;;;;;15.60;75.40;;;;;;7324556;19;9190;-59
2023/12/25 09:54:06;;;;;;;;;;;15.60;75.40;;;;;;7323573;19;10666;-60
2023/12/25 09:56:40;;;;;;;;;;;15.70;75.40;;;;;;7324129;19;9502;-60
2023/12/25 09:59:14;;;;;;;;;;;15.70;75.50;;;;;;7324051;19;9258;-59
2023/12/25 10:01:44;;;;;;;;;;;15.70;75.50;;;;;;7324920;19;10386;-59
2023/12/25 10:04:13;;;;;;;;;;;15.70;75.40;;;;;;7322992;19;9195;-60
2023/12/25 10:06:45;;;;;;;;;;;15.70;75.40;;;;;;7324943;19;9597;-59
2023/12/25 10:09:16;;;;;;;;;;;15.70;75.50;;;;;;7323017;19;9593;-60
2023/12/25 10:12:05;;;;;;;;;;;15.70;75.40;;;;;;7322260;19;9273;-60
2023/12/25 10:14:36;;;;;;;;;;;15.70;75.40;;;;;;7323921;19;9604;-60
2023/12/25 10:17:25;;;;;;;;;;;15.70;75.20;;;;;;7321982;19;9632;-60
2023/12/25 10:19:57;;;;;;;;;;;15.70;75.20;;;;;;7323560;19;9194;-60
2023/12/25 10:22:33;;;;;;;;;;;15.70;75.20;;;;;;7324091;19;9526;-60
2023/12/25 10:25:09;;;;;;;;;;;15.70;75.20;;;;;;7323022;19;9420;-60
2023/12/25 10:27:39;;;;;;;;;;;15.70;75.20;;;;;;7323792;19;9407;-59
2023/12/25 10:30:20;;;;;;;;;;;15.70;75.20;;;;;;7322667;19;9233;-59
2023/12/25 10:32:51;;;;;;;;;;;15.70;75.10;;;;;;7323960;19;9604;-60
2023/12/25 10:35:22;;;;;;;;;;;15.70;75.10;;;;;;7323740;19;9491;-60
2023/12/25 10:37:51;;;;;;;;;;;15.70;75.10;;;;;;7322327;19;9352;-60
2023/12/25 10:40:24;;;;;;;;;;;15.70;75.10;;;;;;7323359;19;9562;-59
2023/12/25 10:42:55;;;;;;;;;;;15.70;75.10;;;;;;7322688;19;9732;-60
2023/12/25 10:45:30;;;;;;;;;;;15.70;75.10;;;;;;7322641;19;9274;-60
2023/12/25 10:48:02;;;;;;;;;;;15.70;75.20;;;;;;7322187;19;9364;-59
2023/12/25 10:50:38;;;;;;;;;;;15.70;75.10;;;;;;7323076;19;10673;-60
2023/12/25 10:53:11;;;;;;;;;;;15.70;75.10;;;;;;7322376;19;9520;-60
2023/12/25 10:55:44;;;;;;;;;;;15.70;75.00;;;;;;7321934;19;10620;-60
2023/12/25 10:58:34;;;;;;;;;;;15.70;75.10;;;;;;7320799;19;9489;-60
2023/12/25 11:01:06;;;;;;;;;;;15.70;75.10;;;;;;7321665;19;10402;-60
2023/12/25 11:03:36;;;;;;;;;;;15.70;75.00;;;;;;7321830;19;10381;-60
2023/12/25 11:06:06;;;;;;;;;;;15.70;75.00;;;;;;7322649;19;9470;-60
2023/12/25 11:08:35;;;;;;;;;;;15.70;75.00;;;;;;7321464;19;9467;-60
2023/12/25 11:11:04;;;;;;;;;;;15.70;75.10;;;;;;7322029;19;9511;-60
2023/12/25 11:13:34;;;;;;;;;;;15.70;75.60;;;;;;7321659;19;9505;-60
2023/12/25 11:16:06;;;;;;;;;;;15.70;74.90;;;;;;7321817;19;9235;-60
2023/12/25 11:18:37;;;;;;;;;;;15.70;74.80;;;;;;7327839;19;9228;-60
2023/12/25 11:21:07;;;;;;;;;;;15.70;74.90;;;;;;7328178;19;9127;-60
2023/12/25 11:23:40;;;;;;;;;;;15.70;74.80;;;;;;7327098;19;9383;-60
2023/12/25 11:26:12;;;;;;;;;;;15.70;74.80;;;;;;7328253;19;9245;-60
2023/12/25 11:28:57;;;;;;;;;;;15.70;74.90;;;;;;7327610;19;9430;-60
2023/12/25 11:31:30;;;;;;;;;;;15.70;74.80;;;;;;7327011;19;9598;-60
2023/12/25 11:34:21;;;;;;;;;;;15.70;74.70;;;;;;7327631;19;9432;-60
2023/12/25 11:37:21;;;;;;;;;;;15.70;74.70;;;;;;7326252;19;9353;-60
2023/12/25 11:40:01;;;;;;;;;;;15.70;74.70;;;;;;7327021;19;9233;-60
2023/12/25 11:42:31;;;;;;;;;;;15.70;74.80;;;;;;7327820;19;9353;-60
2023/12/25 11:45:04;;;;;;;;;;;15.70;74.70;;;;;;7327568;19;9194;-60
2023/12/25 11:47:45;;;;;;;;;;;15.70;74.80;;;;;;7327558;19;9510;-60
2023/12/25 11:50:16;;;;;;;;;;;15.70;74.80;;;;;;7327588;19;10593;-59
2023/12/25 11:53:05;;;;;;;;;;;15.70;74.80;;;;;;7326010;19;9245;-60
2023/12/25 11:55:34;;;;;;;;;;;15.70;74.90;;;;;;7326473;19;9603;-60
2023/12/25 11:58:04;;;;;;;;;;;15.70;74.90;;;;;;7327092;19;9473;-59
2023/12/25 12:00:35;;;;;;;;;;;15.70;74.90;;;;;;7326597;19;9201;-59
2023/12/25 12:03:08;;;;;;;;;;;15.70;75.00;;;;;;7326614;19;11133;-60
2023/12/25 12:05:41;;;;;;;;;;;15.70;74.90;;;;;;7326218;19;9617;-60
2023/12/25 12:08:11;;;;;;;;;;;15.70;75.00;;;;;;7326662;19;9497;-59
2023/12/25 12:10:39;;;;;;;;;;;15.60;74.90;;;;;;7326636;19;9232;-60
2023/12/25 12:13:08;;;;;;;;;;;15.60;74.80;;;;;;7325674;19;9531;-60
2023/12/25 12:15:37;;;;;;;;;;;15.60;74.90;;;;;;7326338;19;9432;-60
2023/12/25 12:18:09;;;;;;;;;;;15.60;74.80;;;;;;7326130;19;9134;-60
2023/12/25 12:20:39;;;;;;;;;;;15.60;74.80;;;;;;7326939;19;9663;-60
2023/12/25 12:23:13;;;;;;;;;;;15.70;75.10;;;;;;7326388;19;9249;-60
2023/12/25 12:25:42;;;;;;;;;;;15.60;74.90;;;;;;7326776;19;9439;-60
2023/12/25 12:28:11;;;;;;;;;;;15.60;74.80;;;;;;7324081;19;10294;-60
2023/12/25 12:30:40;;;;;;;;;;;15.70;74.90;;;;;;7326344;19;9449;-61
2023/12/25 12:33:15;;;;;;;;;;;15.60;74.80;;;;;;7324666;19;9187;-60
2023/12/25 12:35:44;;;;;;;;;;;15.60;74.90;;;;;;7326147;19;9410;-60
2023/12/25 12:38:14;;;;;;;;;;;15.60;74.80;;;;;;7324485;19;9687;-60
2023/12/25 12:40:43;;;;;;;;;;;15.60;75.00;;;;;;7325953;19;9524;-60
2023/12/25 12:43:14;;;;;;;;;;;15.60;74.90;;;;;;7324787;19;9180;-60
2023/12/25 12:45:44;;;;;;;;;;;15.60;74.90;;;;;;7325215;19;9584;-60
2023/12/25 12:48:16;;;;;;;;;;;15.60;74.80;;;;;;7325845;19;9194;-60
2023/12/25 12:50:45;;;;;;;;;;;15.60;74.90;;;;;;7325163;19;9431;-60
2023/12/25 12:53:14;;;;;;;;;;;15.60;74.80;;;;;;7325630;19;9536;-59
2023/12/25 12:56:03;;;;;;;;;;;15.60;74.80;;;;;;7322901;19;9579;-60
2023/12/25 12:58:32;;;;;;;;;;;15.60;74.90;;;;;;7325645;19;9159;-60
2023/12/25 13:01:01;;;;;;;;;;;15.60;74.80;;;;;;7324958;19;9544;-60
2023/12/25 13:03:34;;;;;;;;;;;15.60;74.80;;;;;;7325053;19;9308;-60
2023/12/25 13:06:03;;;;;;;;;;;15.60;74.80;;;;;;7324898;19;9206;-60
2023/12/25 13:08:32;;;;;;;;;;;15.60;74.70;;;;;;7325541;19;9646;-60
2023/12/25 13:11:01;;;;;;;;;;;15.60;74.70;;;;;;7325213;19;9665;-60
2023/12/25 13:13:32;;;;;;;;;;;15.60;74.80;;;;;;7324836;19;9163;-60
2023/12/25 13:16:02;;;;;;;;;;;15.60;74.60;;;;;;7325057;19;9349;-60
2023/12/25 13:18:33;;;;;;;;;;;15.60;74.70;;;;;;7323877;19;10493;-60
2023/12/25 13:21:02;;;;;;;;;;;15.60;74.70;;;;;;7324505;19;9592;-60
2023/12/25 13:23:32;;;;;;;;;;;15.60;74.60;;;;;;7324652;19;9621;-60
2023/12/25 13:26:01;;;;;;;;;;;15.60;74.60;;;;;;7324608;19;9341;-60
2023/12/25 13:28:30;;;;;;;;;;;15.60;74.60;;;;;;7323674;19;9166;-60
2023/12/25 13:31:20;;;;;;;;;;;15.60;74.70;;;;;;7323011;19;9518;-60
2023/12/25 13:33:52;;;;;;;;;;;15.60;74.70;;;;;;7325072;19;9560;-60
2023/12/25 13:36:21;;;;;;;;;;;15.60;74.70;;;;;;7323701;19;9366;-60
2023/12/25 13:38:51;;;;;;;;;;;15.60;74.80;;;;;;7323148;19;9277;-60
2023/12/25 13:41:20;;;;;;;;;;;15.60;74.70;;;;;;7323537;19;9529;-60
2023/12/25 13:43:51;;;;;;;;;;;15.60;74.70;;;;;;7324766;19;9486;-59
2023/12/25 13:46:21;;;;;;;;;;;15.60;74.80;;;;;;7323857;19;9194;-60
2023/12/25 13:49:13;;;;;;;;;;;15.60;74.90;;;;;;7322817;19;9616;-60
2023/12/25 13:51:42;;;;;;;;;;;15.50;74.70;;;;;;7324069;19;9456;-60
2023/12/25 13:54:11;;;;;;;;;;;15.60;74.70;;;;;;7322646;19;9683;-60
2023/12/25 13:56:40;;;;;;;;;;;15.50;74.60;;;;;;7323945;19;9494;-59
2023/12/25 13:59:09;;;;;;;;;;;15.60;74.80;;;;;;7322893;19;9496;-60
2023/12/25 14:01:38;;;;;;;;;;;15.60;75.30;;;;;;7324464;19;9338;-60
2023/12/25 14:04:07;;;;;;;;;;;15.60;74.80;;;;;;7322892;19;10278;-60
2023/12/25 14:06:39;;;;;;;;;;;15.60;74.60;;;;;;7323857;19;9468;-59
2023/12/25 14:09:08;;;;;;;;;;;15.60;74.70;;;;;;7322745;19;9261;-60
2023/12/25 14:11:37;;;;;;;;;;;15.60;74.70;;;;;;7323542;19;9580;-60
2023/12/25 14:14:26;;;;;;;;;;;15.60;74.70;;;;;;7321283;19;9530;-60
2023/12/25 14:16:55;;;;;;;;;;;15.50;74.60;;;;;;7322354;19;11045;-60
2023/12/25 14:19:24;;;;;;;;;;;15.60;74.80;;;;;;7322969;19;9502;-60
2023/12/25 14:21:56;;;;;;;;;;;15.60;74.70;;;;;;7322173;19;9161;-59
2023/12/25 14:24:25;;;;;;;;;;;15.50;74.50;;;;;;7322166;19;9325;-60
2023/12/25 14:26:54;;;;;;;;;;;15.50;74.60;;;;;;7322582;19;9175;-60
2023/12/25 14:29:23;;;;;;;;;;;15.60;75.20;;;;;;7322795;19;9540;-60
2023/12/25 14:31:52;;;;;;;;;;;15.50;74.40;;;;;;7322401;19;9668;-60
2023/12/25 14:34:21;;;;;;;;;;;15.60;74.50;;;;;;7323021;19;9452;-60
2023/12/25 14:36:50;;;;;;;;;;;15.50;74.40;;;;;;7321869;19;9566;-60
2023/12/25 14:39:22;;;;;;;;;;;15.50;74.50;;;;;;7321379;19;9452;-60
2023/12/25 14:41:52;;;;;;;;;;;15.50;74.70;;;;;;7322476;19;10666;-60
2023/12/25 14:44:21;;;;;;;;;;;15.60;74.60;;;;;;7321614;19;9653;-59
2023/12/25 14:47:11;;;;;;;;;;;15.50;74.60;;;;;;7321270;19;9550;-60
2023/12/25 14:49:40;;;;;;;;;;;15.50;74.60;;;;;;7321191;19;9466;-60
2023/12/25 14:52:09;;;;;;;;;;;15.50;74.50;;;;;;7326583;19;10414;-60